Time;durP1;ratioP1;P1;durP2;ratioP2;P2;SDS_P1;SDS_P2;PMS_P1;PMS_P2;Temp;Humidity;BMP_temperature;BMP_pressure;BME280_temperature;BME280_humidity;BME280_pressure;Samples;Min_cycle;Max_cycle;Signal;HPM_P1;HPM_P2
2022/11/07 00:02:10;;;;;;;0.57;0.43;;;9.60;99.90;;;;;;6099572;23;20021;-86
2022/11/07 00:04:35;;;;;;;1.05;0.75;;;9.60;99.90;;;;;;6124031;23;20014;-86
2022/11/07 00:07:02;;;;;;;0.70;0.70;;;9.70;99.90;;;;;;6124277;23;20021;-86
2022/11/07 00:09:28;;;;;;;;;;;9.70;99.90;;;;;;6125231;23;20037;-86
2022/11/07 00:11:54;;;;;;;0.30;0.30;;;9.60;99.90;;;;;;6099305;23;20314;-86
2022/11/07 00:14:20;;;;;;;0.55;0.55;;;9.70;99.90;;;;;;6100210;23;20016;-86
2022/11/07 00:16:46;;;;;;;1.03;0.53;;;9.70;99.90;;;;;;6099919;23;20443;-87
2022/11/07 00:19:16;;;;;;;1.48;0.57;;;9.70;99.90;;;;;;6124078;23;20089;-86
2022/11/07 00:21:42;;;;;;;0.85;0.68;;;9.70;99.90;;;;;;6123727;23;20014;-86
2022/11/07 00:24:08;;;;;;;1.47;0.60;;;9.70;99.90;;;;;;6075752;23;20136;-86
2022/11/07 00:26:35;;;;;;;0.50;0.25;;;9.80;99.90;;;;;;6099864;23;20308;-86
2022/11/07 00:29:01;;;;;;;;;;;9.70;99.90;;;;;;6124470;23;20014;-86
2022/11/07 00:31:26;;;;;;;0.75;0.55;;;9.80;99.90;;;;;;6124059;23;19913;-86
2022/11/07 00:33:52;;;;;;;1.77;0.70;;;9.80;99.90;;;;;;6125261;23;20084;-86
2022/11/07 00:36:19;;;;;;;0.77;0.60;;;9.80;99.90;;;;;;6124094;23;20045;-86
2022/11/07 00:38:46;;;;;;;1.13;0.75;;;9.90;99.90;;;;;;6124142;23;20350;-86
2022/11/07 00:41:12;;;;;;;0.40;0.40;;;10.80;99.90;;;;;;6123753;23;20017;-86
2022/11/07 00:43:38;;;;;;;0.70;0.70;;;9.90;99.90;;;;;;6124190;23;20296;-86
2022/11/07 00:46:06;;;;;;;0.22;0.22;;;9.90;99.90;;;;;;6123379;23;20013;-87
2022/11/07 00:48:32;;;;;;;1.10;0.40;;;9.90;99.90;;;;;;6100092;23;20076;-86
2022/11/07 00:51:08;;;;;;;0.20;0.20;;;9.90;99.90;;;;;;6123997;23;20010;-86
2022/11/07 00:53:34;;;;;;;0.38;0.38;;;10.00;99.90;;;;;;6124313;23;20018;-86
2022/11/07 00:56:02;;;;;;;0.80;0.57;;;9.90;99.90;;;;;;6099019;23;20010;-86
2022/11/07 00:58:27;;;;;;;1.23;0.65;;;10.70;99.90;;;;;;6099995;23;20010;-86
2022/11/07 01:00:53;;;;;;;0.83;0.53;;;10.00;99.90;;;;;;6123776;23;20029;-86
2022/11/07 01:06:03;;;;;;;0.65;0.47;;;10.00;99.90;;;;;;6102530;23;20018;-86
2022/11/07 01:08:30;;;;;;;0.65;0.40;;;10.00;99.90;;;;;;6124201;23;20081;-86
2022/11/07 01:10:56;;;;;;;0.43;0.40;;;10.00;99.90;;;;;;6123308;23;20021;-87
2022/11/07 01:13:22;;;;;;;;;;;10.00;99.90;;;;;;6124450;23;20018;-86
2022/11/07 01:15:48;;;;;;;1.05;0.55;;;10.10;99.90;;;;;;6099576;23;19967;-86
2022/11/07 01:18:14;;;;;;;0.97;0.30;;;10.10;99.90;;;;;;6122990;23;20222;-86
2022/11/07 01:20:40;;;;;;;1.10;0.88;;;10.10;99.90;;;;;;6124104;23;20018;-86
2022/11/07 01:23:06;;;;;;;0.40;0.40;;;10.10;99.90;;;;;;6099362;23;20010;-86
2022/11/07 01:25:32;;;;;;;1.40;0.40;;;10.10;99.90;;;;;;6099378;23;20088;-87
2022/11/07 01:27:57;;;;;;;0.50;0.50;;;10.10;99.90;;;;;;6098744;23;20014;-86
2022/11/07 01:30:23;;;;;;;0.40;0.37;;;10.10;99.90;;;;;;6123102;23;20025;-86
2022/11/07 01:32:49;;;;;;;0.40;0.40;;;10.10;99.90;;;;;;6124032;23;20033;-86
2022/11/07 01:35:15;;;;;;;0.33;0.33;;;10.10;99.90;;;;;;6123749;23;20089;-86
2022/11/07 01:37:40;;;;;;;0.10;0.10;;;10.10;99.90;;;;;;6103969;23;20026;-86
2022/11/07 01:40:07;;;;;;;0.40;0.30;;;10.20;99.90;;;;;;6128269;23;20436;-86
2022/11/07 01:42:32;;;;;;;1.10;0.52;;;10.10;99.90;;;;;;6128409;23;20241;-86
2022/11/07 01:44:59;;;;;;;0.70;0.70;;;10.20;99.90;;;;;;6103685;23;20084;-86
2022/11/07 01:47:30;;;;;;;0.28;0.28;;;10.10;99.90;;;;;;6128566;23;20014;-86
2022/11/07 01:49:59;;;;;;;0.45;0.32;;;10.10;99.90;;;;;;6128885;23;20024;-86
2022/11/07 01:52:27;;;;;;;1.00;0.38;;;10.10;99.90;;;;;;6128718;23;20453;-86
2022/11/07 01:55:14;;;;;;;0.40;0.40;;;10.10;99.90;;;;;;6128633;23;20113;-86
2022/11/07 01:57:43;;;;;;;1.25;0.77;;;10.20;99.90;;;;;;6127910;23;20032;-86
2022/11/07 02:00:12;;;;;;;0.47;0.47;;;10.20;99.90;;;;;;6128011;23;20018;-86
2022/11/07 02:02:39;;;;;;;0.40;0.40;;;10.20;99.90;;;;;;6104954;23;20092;-86
2022/11/07 02:05:06;;;;;;;0.63;0.63;;;10.20;99.90;;;;;;6127690;23;20025;-86
2022/11/07 02:07:33;;;;;;;0.50;0.50;;;10.20;99.90;;;;;;6104179;23;20486;-86
2022/11/07 02:10:00;;;;;;;0.40;0.38;;;10.20;99.90;;;;;;6128060;23;20100;-86
2022/11/07 02:12:26;;;;;;;0.65;0.30;;;10.20;99.90;;;;;;6104058;23;20013;-86
2022/11/07 02:14:53;;;;;;;0.30;0.15;;;10.20;99.90;;;;;;6128830;23;20057;-86
2022/11/07 02:17:19;;;;;;;0.85;0.35;;;10.20;99.90;;;;;;6103832;23;20454;-86
2022/11/07 02:19:50;;;;;;;0.43;0.40;;;10.20;99.90;;;;;;6056303;23;20024;-86
2022/11/07 02:22:30;;;;;;;0.40;0.40;;;10.20;99.90;;;;;;6129210;23;20021;-86
2022/11/07 02:25:02;;;;;;;0.32;0.30;;;10.20;99.90;;;;;;6129971;23;20010;-86
2022/11/07 02:27:30;;;;;;;0.55;0.50;;;10.20;99.90;;;;;;6129853;23;20013;-86
2022/11/07 02:30:01;;;;;;;0.60;0.60;;;10.20;99.90;;;;;;6130264;23;20018;-86
2022/11/07 02:32:26;;;;;;;1.67;0.30;;;10.20;99.90;;;;;;6129794;23;20025;-86
2022/11/07 02:35:05;;;;;;;0.50;0.33;;;10.70;99.90;;;;;;6082013;23;20017;-86
2022/11/07 02:37:37;;;;;;;0.40;0.20;;;10.30;99.90;;;;;;6129888;23;20045;-86
2022/11/07 02:40:06;;;;;;;0.32;0.32;;;10.30;99.90;;;;;;6129842;23;20363;-86
2022/11/07 02:42:42;;;;;;;0.30;0.30;;;10.30;99.90;;;;;;6130144;23;20021;-86
2022/11/07 02:45:18;;;;;;;0.32;0.32;;;10.30;99.90;;;;;;6083413;23;20415;-86
2022/11/07 02:47:44;;;;;;;0.40;0.40;;;10.30;99.90;;;;;;6129313;23;20418;-86
2022/11/07 02:50:13;;;;;;;0.50;0.50;;;10.30;99.90;;;;;;6105327;23;20021;-87
2022/11/07 02:52:39;;;;;;;0.30;0.30;;;10.30;99.90;;;;;;6105597;23;20507;-86
2022/11/07 02:55:06;;;;;;;0.57;0.43;;;10.30;99.90;;;;;;6081957;23;20330;-86
2022/11/07 02:57:32;;;;;;;1.08;0.38;;;10.30;99.90;;;;;;6104624;23;20018;-87
2022/11/07 02:59:58;;;;;;;0.85;0.70;;;10.30;99.90;;;;;;6105753;23;20009;-86
2022/11/07 03:02:24;;;;;;;0.80;0.40;;;10.30;99.90;;;;;;6104725;23;20465;-86
2022/11/07 03:04:53;;;;;;;0.65;0.60;;;10.30;99.90;;;;;;6129762;23;20020;-86
2022/11/07 03:07:18;;;;;;;0.20;0.20;;;10.60;99.90;;;;;;6104605;23;20017;-87
2022/11/07 03:09:44;;;;;;;0.40;0.40;;;10.40;99.90;;;;;;6130187;23;20014;-87
2022/11/07 03:12:10;;;;;;;0.30;0.30;;;10.40;99.90;;;;;;6129574;23;20097;-87
2022/11/07 03:14:36;;;;;;;0.83;0.53;;;10.40;99.90;;;;;;6105769;23;20009;-86
2022/11/07 03:17:02;;;;;;;0.40;0.40;;;10.40;99.90;;;;;;6130109;23;20018;-86
2022/11/07 03:19:27;;;;;;;1.50;0.43;;;10.40;99.90;;;;;;6080991;23;20016;-87
2022/11/07 03:21:53;;;;;;;0.40;0.40;;;10.40;99.90;;;;;;6129705;23;20404;-86
2022/11/07 03:24:19;;;;;;;1.10;0.57;;;10.30;99.90;;;;;;6104872;23;20100;-86
2022/11/07 03:26:44;;;;;;;0.20;0.20;;;10.30;99.90;;;;;;6154211;23;20024;-87
2022/11/07 03:29:10;;;;;;;0.80;0.37;;;10.30;99.90;;;;;;6080573;23;20017;-87
2022/11/07 03:31:36;;;;;;;0.10;0.10;;;10.30;99.90;;;;;;6155060;23;20382;-86
2022/11/07 03:34:02;;;;;;;1.30;0.30;;;10.30;99.90;;;;;;6129229;23;20323;-86
2022/11/07 03:36:28;;;;;;;0.65;0.30;;;10.20;99.90;;;;;;6104577;23;20025;-86
2022/11/07 03:38:54;;;;;;;0.33;0.33;;;10.20;99.90;;;;;;6104597;23;20014;-86
2022/11/07 03:41:19;;;;;;;0.87;0.40;;;10.20;99.90;;;;;;6129354;23;20335;-87
2022/11/07 03:43:45;;;;;;;1.30;0.67;;;10.20;99.90;;;;;;6129586;23;20067;-87
2022/11/07 03:46:15;;;;;;;0.40;0.32;;;10.10;99.90;;;;;;6129647;23;20524;-87
2022/11/07 03:48:42;;;;;;;0.52;0.52;;;9.80;99.90;;;;;;6129365;23;20366;-86
2022/11/07 03:51:09;;;;;;;0.38;0.38;;;10.10;99.90;;;;;;6105083;23;20434;-86
2022/11/07 03:53:35;;;;;;;1.02;0.38;;;10.10;99.90;;;;;;6081058;23;20021;-86
2022/11/07 03:56:11;;;;;;;0.50;0.50;;;10.10;99.90;;;;;;6154481;23;20037;-87
2022/11/07 03:58:37;;;;;;;0.85;0.43;;;10.60;99.90;;;;;;6103758;23;20032;-87
2022/11/07 04:01:03;;;;;;;0.73;0.30;;;10.10;99.90;;;;;;6104866;23;20414;-86
2022/11/07 04:03:30;;;;;;;0.43;0.30;;;10.10;99.90;;;;;;6104505;23;20013;-86
2022/11/07 04:05:55;;;;;;;0.30;0.20;;;10.10;99.90;;;;;;6105604;23;20064;-86
2022/11/07 04:08:21;;;;;;;0.33;0.20;;;10.10;99.90;;;;;;6056288;23;20426;-86
2022/11/07 04:10:47;;;;;;;0.20;0.20;;;10.20;99.90;;;;;;6128896;23;20014;-86
2022/11/07 04:18:41;;;;;;;0.43;0.25;;;10.20;99.90;;;;;;6128601;23;20017;-86
2022/11/07 04:21:07;;;;;;;0.63;0.50;;;10.20;99.90;;;;;;6154081;23;20017;-85
2022/11/07 04:23:33;;;;;;;0.33;0.30;;;11.00;99.90;;;;;;6080725;23;20005;-89
2022/11/07 04:28:43;;;;;;;0.88;0.68;;;10.20;99.90;;;;;;6128849;23;20029;-85
2022/11/07 04:31:09;;;;;;;0.37;0.33;;;10.20;99.90;;;;;;6080496;23;20400;-85
2022/11/07 04:33:34;;;;;;;0.30;0.20;;;10.20;99.90;;;;;;6154853;23;20009;-86
2022/11/07 04:36:00;;;;;;;0.73;0.50;;;10.20;99.90;;;;;;6104492;23;20100;-85
2022/11/07 04:38:26;;;;;;;0.83;0.43;;;10.20;99.90;;;;;;6104384;23;20052;-85
2022/11/07 04:40:54;;;;;;;0.40;0.40;;;10.20;99.90;;;;;;6128418;23;20287;-85
2022/11/07 04:43:19;;;;;;;0.90;0.40;;;10.20;99.90;;;;;;6128571;23;20013;-86
2022/11/07 04:45:45;;;;;;;0.30;0.30;;;10.30;99.90;;;;;;6103903;23;20020;-85
2022/11/07 04:48:11;;;;;;;0.40;0.40;;;10.30;99.90;;;;;;6104770;23;20049;-85
2022/11/07 04:50:37;;;;;;;0.60;0.50;;;10.30;99.90;;;;;;6128222;23;20049;-85
2022/11/07 04:53:03;;;;;;;0.30;0.30;;;10.20;99.90;;;;;;6104551;23;20249;-85
2022/11/07 04:55:29;;;;;;;0.73;0.40;;;10.30;99.90;;;;;;6153220;23;20096;-85
2022/11/07 04:57:56;;;;;;;0.50;0.50;;;10.30;99.90;;;;;;6128503;23;20477;-85
2022/11/07 05:00:22;;;;;;;0.70;0.70;;;10.30;99.90;;;;;;6128642;23;20020;-85
2022/11/07 05:02:49;;;;;;;0.50;0.43;;;10.30;99.90;;;;;;6079830;23;20024;-86
2022/11/07 05:05:16;;;;;;;1.13;0.68;;;10.30;99.90;;;;;;6103427;23;20026;-86
2022/11/07 05:07:42;;;;;;;0.52;0.32;;;10.30;99.90;;;;;;6127508;23;20020;-86
2022/11/07 05:10:17;;;;;;;0.20;0.20;;;10.20;99.90;;;;;;6104190;23;20304;-86
2022/11/07 05:12:43;;;;;;;0.10;0.10;;;10.20;99.90;;;;;;6128678;23;20331;-86
2022/11/07 05:15:09;;;;;;;0.67;0.60;;;10.20;99.90;;;;;;6103804;23;20017;-86
2022/11/07 05:17:35;;;;;;;0.57;0.30;;;10.20;99.90;;;;;;6103945;23;20014;-86
2022/11/07 05:20:00;;;;;;;0.30;0.30;;;10.20;99.90;;;;;;6153214;23;20036;-86
2022/11/07 05:25:10;;;;;;;0.50;0.30;;;10.20;99.90;;;;;;6128102;23;20374;-86
2022/11/07 05:27:36;;;;;;;0.20;0.20;;;10.20;99.90;;;;;;6103812;23;20080;-85
2022/11/07 05:30:01;;;;;;;0.50;0.50;;;10.20;99.90;;;;;;6104842;23;20088;-85
2022/11/07 05:32:28;;;;;;;0.40;0.35;;;10.20;99.90;;;;;;6104434;23;20088;-85
2022/11/07 05:34:53;;;;;;;0.60;0.33;;;10.20;99.90;;;;;;6079386;23;20422;-86
2022/11/07 05:37:19;;;;;;;1.70;0.40;;;10.20;99.90;;;;;;6104048;23;20427;-86
2022/11/07 05:39:45;;;;;;;1.27;0.40;;;10.20;99.90;;;;;;6128539;23;20311;-86
2022/11/07 05:42:10;;;;;;;0.30;0.30;;;10.20;99.90;;;;;;6128698;23;20014;-85
2022/11/07 05:44:36;;;;;;;0.20;0.20;;;10.30;99.90;;;;;;6128020;23;20326;-86
2022/11/07 05:47:02;;;;;;;0.97;0.33;;;10.20;99.90;;;;;;6154676;23;20039;-86
2022/11/07 05:49:27;;;;;;;0.30;0.23;;;10.20;99.90;;;;;;6128950;23;20013;-86
2022/11/07 05:51:53;;;;;;;0.50;0.50;;;10.20;99.90;;;;;;6103711;23;20056;-86
2022/11/07 05:54:19;;;;;;;0.50;0.13;;;9.50;99.90;;;;;;6128714;23;20089;-85
2022/11/07 05:56:44;;;;;;;0.43;0.43;;;10.20;99.90;;;;;;6104643;23;20100;-86
2022/11/07 05:59:11;;;;;;;0.17;0.17;;;10.20;99.90;;;;;;6131185;23;20014;-86
2022/11/07 06:01:37;;;;;;;0.45;0.32;;;10.20;99.90;;;;;;6105741;23;20374;-87
2022/11/07 06:04:03;;;;;;;0.17;0.17;;;10.20;99.90;;;;;;6156901;23;20013;-86
2022/11/07 06:06:30;;;;;;;0.82;0.40;;;10.20;99.90;;;;;;6082129;23;20009;-86
2022/11/07 06:08:56;;;;;;;0.90;0.38;;;10.20;99.90;;;;;;6082058;23;20131;-85
2022/11/07 06:11:22;;;;;;;0.70;0.43;;;10.20;99.90;;;;;;6105872;23;20430;-86
2022/11/07 06:13:48;;;;;;;0.80;0.50;;;10.20;99.90;;;;;;6105692;23;20017;-86
2022/11/07 06:16:14;;;;;;;0.20;0.20;;;10.20;99.90;;;;;;6129851;23;20021;-86
2022/11/07 06:18:40;;;;;;;1.50;0.27;;;10.20;99.90;;;;;;6130170;23;20304;-86
2022/11/07 06:21:06;;;;;;;0.50;0.27;;;10.60;99.90;;;;;;6129759;23;20017;-86
2022/11/07 06:23:31;;;;;;;0.47;0.40;;;10.20;99.90;;;;;;6130064;23;20352;-86
2022/11/07 06:25:57;;;;;;;0.33;0.20;;;10.20;99.90;;;;;;6104989;23;20311;-86
2022/11/07 06:28:24;;;;;;;0.28;0.28;;;10.20;99.90;;;;;;6130158;23;20321;-86
2022/11/07 06:30:49;;;;;;;0.68;0.47;;;10.20;99.90;;;;;;6129738;23;20013;-86
2022/11/07 06:33:17;;;;;;;0.33;0.33;;;10.20;99.90;;;;;;6081049;23;20010;-86
2022/11/07 06:35:43;;;;;;;1.00;0.70;;;9.90;99.90;;;;;;6128776;23;20013;-86
2022/11/07 06:38:11;;;;;;;0.95;0.63;;;10.20;99.90;;;;;;6129487;23;20018;-86
2022/11/07 06:40:38;;;;;;;0.63;0.35;;;10.20;99.90;;;;;;6130141;23;20458;-86
2022/11/07 06:43:07;;;;;;;;;;;10.20;99.90;;;;;;6105432;23;20049;-86
2022/11/07 06:45:34;;;;;;;0.88;0.40;;;10.20;99.90;;;;;;6129725;23;19943;-86
2022/11/07 06:48:00;;;;;;;1.17;0.20;;;8.90;99.90;;;;;;6129329;23;20454;-86
2022/11/07 06:50:25;;;;;;;0.50;0.50;;;10.60;99.90;;;;;;6130173;23;20092;-85
2022/11/07 06:52:51;;;;;;;0.63;0.30;;;10.10;99.90;;;;;;6104738;23;20332;-86
2022/11/07 06:55:20;;;;;;;0.57;0.30;;;10.10;99.90;;;;;;6106478;23;20500;-86
2022/11/07 06:57:46;;;;;;;0.25;0.20;;;10.10;99.90;;;;;;6156356;23;20018;-87
2022/11/07 07:00:13;;;;;;;0.28;0.20;;;10.10;99.90;;;;;;6105476;23;20430;-87
2022/11/07 07:02:38;;;;;;;0.38;0.38;;;10.10;99.90;;;;;;6129605;23;20013;-86
2022/11/07 07:05:05;;;;;;;0.73;0.53;;;10.00;99.90;;;;;;6128158;23;20027;-86
2022/11/07 07:07:31;;;;;;;0.95;0.40;;;10.00;99.90;;;;;;6105189;23;20517;-87
2022/11/07 07:09:57;;;;;;;0.60;0.50;;;10.40;99.90;;;;;;6104696;23;20009;-87
2022/11/07 07:12:22;;;;;;;0.30;0.30;;;10.00;99.90;;;;;;6129498;23;20009;-87
2022/11/07 07:14:48;;;;;;;0.30;0.30;;;10.00;99.90;;;;;;6104565;23;20061;-87
2022/11/07 07:17:14;;;;;;;0.45;0.32;;;10.00;99.90;;;;;;6081442;23;20013;-85
2022/11/07 07:19:40;;;;;;;0.55;0.20;;;10.10;99.90;;;;;;6105611;23;20040;-85
2022/11/07 07:22:11;;;;;;;0.97;0.47;;;10.00;99.90;;;;;;6105239;23;20100;-85
2022/11/07 07:24:37;;;;;;;0.43;0.40;;;10.00;99.90;;;;;;6104503;23;20026;-85
2022/11/07 07:27:02;;;;;;;1.57;0.37;;;10.10;99.90;;;;;;6104524;23;20390;-85
2022/11/07 07:29:28;;;;;;;0.63;0.60;;;10.00;99.90;;;;;;6105437;23;20028;-85
2022/11/07 07:31:54;;;;;;;0.93;0.50;;;10.10;99.90;;;;;;6080914;23;20105;-85
2022/11/07 07:34:22;;;;;;;0.17;0.10;;;10.10;99.90;;;;;;6129098;23;20431;-88
2022/11/07 07:36:48;;;;;;;0.90;0.40;;;10.10;99.90;;;;;;6098734;23;20026;-87
2022/11/07 07:39:14;;;;;;;1.00;0.53;;;10.10;99.90;;;;;;6122958;23;20123;-86
2022/11/07 07:41:39;;;;;;;0.70;0.60;;;10.20;99.90;;;;;;6075933;23;20466;-87
2022/11/07 07:44:05;;;;;;;1.83;0.43;;;10.20;99.90;;;;;;6098486;23;20018;-86
2022/11/07 07:46:31;;;;;;;0.50;0.50;;;10.20;99.90;;;;;;6099370;23;20117;-86
2022/11/07 07:48:56;;;;;;;0.30;0.30;;;10.30;99.90;;;;;;6098804;23;20391;-86
2022/11/07 07:51:22;;;;;;;2.07;0.50;;;10.30;99.90;;;;;;6099569;23;20025;-85
2022/11/07 07:53:48;;;;;;;2.80;0.50;;;10.30;99.90;;;;;;6099186;23;20018;-86
2022/11/07 07:56:16;;;;;;;0.53;0.50;;;10.30;99.90;;;;;;6098557;23;20033;-86
2022/11/07 07:58:42;;;;;;;0.57;0.20;;;10.30;99.90;;;;;;6124114;23;20014;-86
2022/11/07 08:01:09;;;;;;;0.40;0.40;;;10.30;99.90;;;;;;6098833;23;20387;-85
2022/11/07 08:03:35;;;;;;;0.20;0.20;;;10.30;99.90;;;;;;6123334;23;20018;-86
2022/11/07 08:06:01;;;;;;;0.52;0.32;;;10.30;99.90;;;;;;6122965;23;20473;-86
2022/11/07 08:08:27;;;;;;;1.08;0.38;;;10.40;99.90;;;;;;6075436;23;20053;-86
2022/11/07 08:10:58;;;;;;;0.40;0.40;;;9.30;99.90;;;;;;6123594;23;20028;-87
2022/11/07 08:13:25;;;;;;;0.43;0.43;;;10.40;99.90;;;;;;6122536;23;20018;-86
2022/11/07 08:15:51;;;;;;;1.20;0.50;;;10.50;99.90;;;;;;6098880;23;20169;-85
2022/11/07 08:18:20;;;;;;;0.30;0.30;;;10.40;99.90;;;;;;6098739;23;20443;-86
2022/11/07 08:20:49;;;;;;;0.08;0.05;;;10.50;99.90;;;;;;6123783;23;20014;-86
2022/11/07 08:23:14;;;;;;;0.50;0.32;;;10.50;99.90;;;;;;6098302;23;20538;-87
2022/11/07 08:25:40;;;;;;;0.60;0.30;;;10.50;99.90;;;;;;6123561;23;20018;-87
2022/11/07 08:28:07;;;;;;;0.10;0.10;;;10.50;99.90;;;;;;6123191;23;20021;-87
2022/11/07 08:30:34;;;;;;;0.30;0.28;;;10.50;99.90;;;;;;6075523;23;20372;-87
2022/11/07 08:33:02;;;;;;;0.30;0.25;;;10.60;99.90;;;;;;6098597;23;20022;-87
2022/11/07 08:35:31;;;;;;;0.95;0.40;;;10.70;99.90;;;;;;6123675;23;20018;-87
2022/11/07 08:37:57;;;;;;;0.77;0.35;;;10.70;99.90;;;;;;6122745;23;20022;-87
2022/11/07 08:40:23;;;;;;;0.50;0.35;;;10.70;99.90;;;;;;6099123;23;20018;-87
2022/11/07 08:42:49;;;;;;;0.30;0.30;;;10.80;99.90;;;;;;6098802;23;20518;-86
2022/11/07 08:45:15;;;;;;;0.43;0.20;;;10.80;99.90;;;;;;6123087;23;20101;-86
2022/11/07 08:47:40;;;;;;;0.30;0.30;;;10.90;99.90;;;;;;6123633;23;20018;-87
2022/11/07 08:50:06;;;;;;;1.20;0.20;;;10.90;99.90;;;;;;6074767;23;20715;-86
2022/11/07 08:52:34;;;;;;;0.47;0.40;;;10.90;99.90;;;;;;6123572;23;20342;-86
2022/11/07 08:55:01;;;;;;;0.30;0.20;;;10.90;99.90;;;;;;6098522;23;20100;-86
2022/11/07 08:57:27;;;;;;;0.52;0.25;;;10.90;99.90;;;;;;6098939;23;20044;-87
2022/11/07 08:59:53;;;;;;;0.30;0.27;;;11.00;99.90;;;;;;6075093;23;20459;-86
2022/11/07 09:02:19;;;;;;;0.30;0.20;;;11.00;99.90;;;;;;6122711;23;20474;-87
2022/11/07 09:04:44;;;;;;;0.53;0.53;;;12.20;99.90;;;;;;6074696;23;20014;-87
2022/11/07 09:07:10;;;;;;;0.00;0.00;;;11.00;99.90;;;;;;6122769;23;20029;-88
2022/11/07 09:09:36;;;;;;;0.60;0.60;;;11.00;99.90;;;;;;6147963;23;20018;-87
2022/11/07 09:12:02;;;;;;;0.90;0.47;;;11.10;99.90;;;;;;6122865;23;20520;-87
2022/11/07 09:14:27;;;;;;;0.20;0.20;;;11.10;99.90;;;;;;6099048;23;20458;-87
2022/11/07 09:16:53;;;;;;;1.03;0.50;;;11.10;99.90;;;;;;6099166;23;20040;-86
2022/11/07 09:19:19;;;;;;;0.47;0.30;;;11.20;99.90;;;;;;6075443;23;20107;-87
2022/11/07 09:21:45;;;;;;;0.77;0.40;;;11.10;99.90;;;;;;6099940;23;20045;-87
2022/11/07 09:24:11;;;;;;;1.05;0.35;;;11.10;99.90;;;;;;6101610;23;20022;-86
2022/11/07 09:26:36;;;;;;;0.93;0.40;;;11.10;99.90;;;;;;6123010;23;20514;-85
2022/11/07 09:29:03;;;;;;;0.27;0.20;;;11.00;99.90;;;;;;6074757;23;20022;-88
2022/11/07 09:31:28;;;;;;;0.70;0.25;;;11.00;99.90;;;;;;6122693;23;20037;-87
2022/11/07 09:33:54;;;;;;;0.73;0.40;;;11.00;99.90;;;;;;6098850;23;20450;-88
2022/11/07 09:36:23;;;;;;;0.10;0.10;;;10.90;99.90;;;;;;6100050;23;20022;-87
2022/11/07 09:38:49;;;;;;;0.30;0.30;;;11.30;99.90;;;;;;6103637;23;20022;-87
2022/11/07 09:41:24;;;;;;;0.47;0.47;;;10.90;99.90;;;;;;6082551;23;20096;-87
2022/11/07 09:44:02;;;;;;;0.20;0.20;;;10.90;99.90;;;;;;6103185;23;20017;-87
2022/11/07 09:46:49;;;;;;;0.13;0.13;;;10.90;99.90;;;;;;6103868;23;20021;-86
2022/11/07 09:49:17;;;;;;;0.30;0.10;;;10.90;99.90;;;;;;6104053;23;20403;-87
2022/11/07 09:52:16;;;;;;;0.28;0.28;;;10.90;99.90;;;;;;6104008;23;20021;-87
2022/11/07 09:54:49;;;;;;;;;;;10.90;99.90;;;;;;6127866;23;20021;-87
2022/11/07 09:57:17;;;;;;;0.35;0.35;;;10.90;99.90;;;;;;6127012;23;19916;-86
2022/11/07 10:00:03;;;;;;;0.28;0.28;;;11.00;99.90;;;;;;6080391;23;20017;-88
2022/11/07 10:02:46;;;;;;;0.45;0.45;;;11.00;99.90;;;;;;6128316;23;20683;-88
2022/11/07 10:05:17;;;;;;;0.20;0.20;;;11.00;99.90;;;;;;6128215;23;20528;-87
2022/11/07 10:08:31;;;;;;;0.30;0.10;;;11.10;99.90;;;;;;6128724;23;20439;-87
2022/11/07 10:11:20;;;;;;;0.75;0.40;;;11.20;99.90;;;;;;6091526;23;20447;-87
2022/11/07 10:13:58;;;;;;;0.35;0.25;;;11.20;99.90;;;;;;6104760;23;20324;-87
2022/11/07 10:16:46;;;;;;;0.38;0.38;;;11.20;99.90;;;;;;6103374;23;20029;-87
2022/11/07 10:19:24;;;;;;;0.20;0.20;;;11.30;99.90;;;;;;6128517;23;20076;-86
2022/11/07 10:22:29;;;;;;;1.65;0.57;;;11.30;99.90;;;;;;6103892;23;20026;-87
2022/11/07 10:25:32;;;;;;;0.50;0.50;;;11.30;99.90;;;;;;6104466;23;20024;-87
2022/11/07 10:28:17;;;;;;;0.40;0.40;;;11.40;99.90;;;;;;6128479;23;20056;-87
2022/11/07 10:30:47;;;;;;;0.30;0.30;;;12.80;99.90;;;;;;6128706;23;20014;-87
2022/11/07 10:33:34;;;;;;;0.63;0.30;;;11.70;99.90;;;;;;6128488;23;20022;-87
2022/11/07 10:36:24;;;;;;;0.03;0.03;;;11.80;99.90;;;;;;6128063;23;20327;-86
2022/11/07 10:38:51;;;;;;;0.50;0.30;;;11.80;99.90;;;;;;6127799;23;20351;-87
2022/11/07 10:41:28;;;;;;;0.63;0.30;;;11.80;99.90;;;;;;6154133;23;20094;-88
2022/11/07 10:44:02;;;;;;;0.10;0.10;;;11.90;99.90;;;;;;6129845;23;20021;-88
2022/11/07 10:46:38;;;;;;;0.43;0.30;;;12.00;99.90;;;;;;6129862;23;20461;-90
2022/11/07 10:49:26;;;;;;;3.13;0.75;;;12.10;99.90;;;;;;6130541;23;20017;-88
2022/11/07 10:51:54;;;;;;;0.20;0.10;;;12.20;99.90;;;;;;6130483;23;20017;-89
2022/11/07 10:54:27;;;;;;;1.60;0.20;;;12.30;99.90;;;;;;6129933;23;20442;-86
2022/11/07 10:57:22;;;;;;;1.05;0.77;;;12.30;99.90;;;;;;6105497;23;20509;-87
2022/11/07 10:59:50;;;;;;;0.35;0.35;;;12.30;99.90;;;;;;6081591;23;20056;-87
2022/11/07 11:02:20;;;;;;;0.22;0.22;;;12.40;99.90;;;;;;6105923;23;20017;-86
2022/11/07 11:04:53;;;;;;;0.30;0.30;;;12.30;99.90;;;;;;6105705;23;20028;-88
2022/11/07 11:07:23;;;;;;;0.32;0.20;;;12.40;99.90;;;;;;6105276;23;20324;-90
2022/11/07 11:09:51;;;;;;;0.57;0.47;;;12.30;99.90;;;;;;6105668;23;20520;-92
2022/11/07 11:12:23;;;;;;;0.30;0.30;;;12.40;99.90;;;;;;6130155;23;20017;-86
2022/11/07 11:14:49;;;;;;;0.30;0.30;;;12.40;99.90;;;;;;6131396;23;20454;-86
2022/11/07 11:17:24;;;;;;;0.20;0.20;;;12.40;99.90;;;;;;6130318;23;20023;-88
2022/11/07 11:19:52;;;;;;;0.55;0.35;;;12.40;99.90;;;;;;6130514;23;20052;-86
2022/11/07 11:22:23;;;;;;;0.20;0.20;;;12.40;99.90;;;;;;6105690;23;20096;-86
2022/11/07 11:25:23;;;;;;;0.20;0.20;;;12.40;99.90;;;;;;6130281;23;20096;-89
2022/11/07 11:27:57;;;;;;;0.00;0.00;;;12.50;99.90;;;;;;6105158;23;20397;-87
2022/11/07 11:30:23;;;;;;;0.10;0.10;;;12.50;99.90;;;;;;6105334;23;20017;-87
2022/11/07 11:32:55;;;;;;;0.20;0.20;;;12.50;99.90;;;;;;6081901;23;20104;-88
2022/11/07 11:35:46;;;;;;;0.10;0.10;;;12.50;99.90;;;;;;6130108;23;20014;-87
2022/11/07 11:38:11;;;;;;;0.45;0.45;;;12.50;99.90;;;;;;6104825;23;20040;-87
2022/11/07 11:40:44;;;;;;;0.40;0.40;;;12.60;99.90;;;;;;6129365;23;20370;-88
2022/11/07 11:43:10;;;;;;;0.22;0.22;;;12.60;99.90;;;;;;6129779;23;20018;-85
2022/11/07 11:45:54;;;;;;;0.30;0.27;;;12.70;99.90;;;;;;6105071;23;20033;-87
2022/11/07 11:48:27;;;;;;;0.20;0.20;;;12.70;99.90;;;;;;6105145;23;20021;-85
2022/11/07 11:51:06;;;;;;;0.30;0.20;;;12.70;99.90;;;;;;6130316;23;20018;-86
2022/11/07 11:53:32;;;;;;;0.30;0.20;;;12.70;99.90;;;;;;6128738;23;20014;-84
2022/11/07 11:56:29;;;;;;;0.20;0.20;;;12.80;99.90;;;;;;6129767;23;20024;-84
2022/11/07 11:59:23;;;;;;;0.55;0.40;;;12.80;99.90;;;;;;6130077;23;20350;-84
2022/11/07 12:02:28;;;;;;;0.28;0.28;;;12.70;99.90;;;;;;6104862;23;20026;-85
2022/11/07 12:05:03;;;;;;;0.95;0.38;;;12.80;99.90;;;;;;6109927;23;20025;-85
2022/11/07 12:07:37;;;;;;;0.22;0.22;;;12.80;99.90;;;;;;6128726;23;20060;-86
2022/11/07 12:10:21;;;;;;;0.20;0.20;;;12.80;99.90;;;;;;6105589;23;20021;-84
2022/11/07 12:13:03;;;;;;;0.30;0.30;;;12.80;99.90;;;;;;6129157;23;20018;-88
2022/11/07 12:16:05;;;;;;;0.32;0.32;;;12.80;99.90;;;;;;6104895;23;20025;-92
2022/11/07 12:18:38;;;;;;;0.20;0.20;;;12.80;99.90;;;;;;6104708;23;20024;-84
2022/11/07 12:21:20;;;;;;;0.28;0.28;;;12.80;99.90;;;;;;6129725;23;20064;-85
2022/11/07 12:24:13;;;;;;;0.35;0.20;;;12.80;99.90;;;;;;6128896;23;20017;-87
2022/11/07 12:26:42;;;;;;;0.30;0.30;;;12.80;99.90;;;;;;6128648;23;20021;-88
2022/11/07 12:29:40;;;;;;;0.43;0.20;;;12.80;99.90;;;;;;6104818;23;20105;-87
2022/11/07 12:32:15;;;;;;;0.30;0.22;;;12.80;99.90;;;;;;6129518;23;20017;-87
2022/11/07 12:34:55;;;;;;;0.38;0.30;;;12.80;99.90;;;;;;6104575;23;20101;-87
2022/11/07 12:37:37;;;;;;;0.20;0.20;;;12.90;99.90;;;;;;6104556;23;20025;-88
2022/11/07 12:40:13;;;;;;;0.20;0.20;;;13.00;99.90;;;;;;6129300;23;20092;-87
2022/11/07 12:43:09;;;;;;;0.20;0.20;;;13.10;99.90;;;;;;6104317;23;20438;-86
2022/11/07 12:45:57;;;;;;;0.20;0.20;;;13.20;99.90;;;;;;6129144;23;20013;-86
2022/11/07 12:48:29;;;;;;;0.20;0.20;;;13.20;99.90;;;;;;6129475;23;20412;-86
2022/11/07 12:51:03;;;;;;;0.25;0.25;;;13.20;99.90;;;;;;6104297;23;20021;-87
2022/11/07 12:53:40;;;;;;;0.17;0.10;;;13.20;99.90;;;;;;6104987;23;20018;-87
2022/11/07 12:56:15;;;;;;;0.13;0.10;;;13.20;99.90;;;;;;6104855;23;20526;-87
2022/11/07 12:58:43;;;;;;;0.10;0.10;;;13.20;99.90;;;;;;6128476;23;20378;-86
2022/11/07 13:01:17;;;;;;;0.30;0.30;;;13.10;99.90;;;;;;6128722;23;20024;-86
2022/11/07 13:03:53;;;;;;;0.40;0.40;;;13.10;99.90;;;;;;6128711;23;20022;-87
2022/11/07 13:06:56;;;;;;;0.33;0.30;;;13.10;99.90;;;;;;6104432;23;20021;-87
2022/11/07 13:09:32;;;;;;;0.28;0.28;;;12.00;99.90;;;;;;6059691;23;20472;-87
2022/11/07 13:12:23;;;;;;;0.20;0.20;;;13.10;99.90;;;;;;6104307;23;20018;-85
2022/11/07 13:14:50;;;;;;;0.10;0.10;;;13.10;99.90;;;;;;6128248;23;20024;-86
2022/11/07 13:17:23;;;;;;;0.50;0.50;;;13.10;99.90;;;;;;6154970;23;20088;-86